Time;durP1;ratioP1;P1;durP2;ratioP2;P2;SDS_P1;SDS_P2;PMS_P1;PMS_P2;Temp;Humidity;BMP_temperature;BMP_pressure;BME280_temperature;BME280_humidity;BME280_pressure;Samples;Min_cycle;Max_cycle;Signal;HPM_P1;HPM_P2
2021/12/31 00:00:10;;;;;;;6.50;4.38;;;14.70;87.50;;;;;;5030641;28;20037;-72
2021/12/31 00:02:36;;;;;;;8.23;4.88;;;14.60;87.50;;;;;;5030764;28;20107;-72
2021/12/31 00:05:03;;;;;;;8.95;4.38;;;14.60;87.40;;;;;;5031138;28;20038;-72
2021/12/31 00:07:29;;;;;;;8.13;4.72;;;14.60;87.40;;;;;;5030149;28;20065;-72
2021/12/31 00:09:59;;;;;;;7.10;3.95;;;14.60;87.40;;;;;;5030337;28;20115;-72
2021/12/31 00:12:25;;;;;;;7.65;3.72;;;14.70;87.50;;;;;;5015076;28;20052;-72
2021/12/31 00:14:51;;;;;;;8.45;4.70;;;14.70;87.50;;;;;;5018678;28;20030;-72
2021/12/31 00:17:17;;;;;;;8.15;3.92;;;14.70;87.40;;;;;;5029031;28;20662;-72
2021/12/31 00:19:45;;;;;;;11.82;4.22;;;14.70;87.40;;;;;;5028694;28;20033;-72
2021/12/31 00:23:01;;;;;;;7.13;3.75;;;14.70;87.30;;;;;;5008725;28;20037;-72
2021/12/31 00:25:02;;;;;;;9.10;3.90;;;14.70;87.30;;;;;;5012423;28;20046;-72
2021/12/31 00:27:27;;;;;;;6.82;3.60;;;14.60;87.20;;;;;;5005567;28;20112;-72
2021/12/31 00:29:53;;;;;;;7.18;4.00;;;14.70;87.30;;;;;;5005405;28;20267;-72
2021/12/31 00:32:19;;;;;;;8.73;3.35;;;14.60;87.30;;;;;;4995167;28;20120;-72
2021/12/31 00:34:45;;;;;;;7.82;3.88;;;14.70;87.30;;;;;;4996306;28;20021;-73
2021/12/31 00:37:11;;;;;;;11.23;3.83;;;14.70;87.30;;;;;;5026358;28;20033;-72
2021/12/31 00:39:37;;;;;;;10.18;3.83;;;14.70;87.20;;;;;;5028704;28;20038;-72
2021/12/31 00:42:04;;;;;;;8.50;3.47;;;14.70;87.00;;;;;;5026954;28;20026;-72
2021/12/31 00:44:30;;;;;;;7.93;3.55;;;14.70;87.00;;;;;;5028657;28;20044;-73
2021/12/31 00:46:55;;;;;;;9.45;3.33;;;14.70;87.60;;;;;;5012259;28;20029;-73
2021/12/31 00:49:21;;;;;;;6.03;3.00;;;14.70;87.10;;;;;;5030183;28;20037;-73
2021/12/31 00:51:47;;;;;;;7.82;3.40;;;14.60;87.10;;;;;;5029283;28;20033;-73
2021/12/31 00:54:12;;;;;;;9.13;3.30;;;14.60;86.90;;;;;;4981701;28;20029;-73
2021/12/31 00:56:38;;;;;;;8.65;3.20;;;14.60;86.90;;;;;;5015450;28;20468;-73
2021/12/31 00:59:04;;;;;;;7.10;3.00;;;14.60;86.80;;;;;;5018028;28;20048;-73
2021/12/31 01:01:31;;;;;;;7.10;3.15;;;14.60;86.60;;;;;;4987790;28;20480;-73
2021/12/31 01:03:57;;;;;;;6.03;2.80;;;14.60;86.50;;;;;;5025746;28;20550;-73
2021/12/31 01:06:23;;;;;;;5.90;3.00;;;14.60;86.50;;;;;;5018220;28;20030;-73
2021/12/31 01:08:48;;;;;;;5.90;2.70;;;14.60;86.50;;;;;;5029074;28;20116;-73
2021/12/31 01:11:17;;;;;;;7.38;2.58;;;14.60;86.50;;;;;;5018166;28;20033;-73
2021/12/31 01:13:57;;;;;;;9.38;2.72;;;14.60;86.50;;;;;;5019535;28;20087;-73
2021/12/31 01:16:34;;;;;;;8.55;2.78;;;14.60;86.40;;;;;;5014626;28;20032;-73
2021/12/31 01:21:26;;;;;;;7.55;2.40;;;14.60;86.40;;;;;;5012533;28;20037;-73
2021/12/31 01:23:52;;;;;;;7.03;2.78;;;14.60;86.30;;;;;;5015791;28;20131;-73
2021/12/31 01:26:18;;;;;;;5.40;2.55;;;14.60;86.10;;;;;;5029123;28;20037;-73
2021/12/31 01:28:45;;;;;;;6.03;2.67;;;14.60;86.10;;;;;;5029356;28;20028;-73
2021/12/31 01:31:11;;;;;;;6.80;2.50;;;14.60;86.10;;;;;;5022095;28;20143;-73
2021/12/31 01:33:37;;;;;;;4.43;2.60;;;14.60;86.10;;;;;;5020714;28;20028;-73
2021/12/31 01:36:04;;;;;;;5.78;3.10;;;14.70;86.10;;;;;;5020064;28;20026;-74
2021/12/31 01:38:31;;;;;;;5.30;2.80;;;14.60;86.10;;;;;;5029625;28;20492;-73
2021/12/31 01:40:56;;;;;;;4.38;2.20;;;14.60;85.90;;;;;;5034164;28;20043;-73
2021/12/31 01:43:22;;;;;;;6.00;2.20;;;14.60;86.00;;;;;;5016327;28;20034;-73
2021/12/31 01:45:54;;;;;;;6.18;2.65;;;14.60;86.10;;;;;;5038638;28;20037;-73
2021/12/31 01:48:48;;;;;;;5.63;2.05;;;14.60;86.00;;;;;;5032627;28;20057;-73
2021/12/31 01:51:13;;;;;;;4.93;2.47;;;14.60;85.90;;;;;;5032113;28;20041;-73
2021/12/31 01:53:39;;;;;;;4.03;2.08;;;14.60;85.90;;;;;;5042712;28;20460;-73
2021/12/31 01:56:06;;;;;;;6.38;2.38;;;14.60;86.00;;;;;;5014730;28;20033;-73
2021/12/31 01:58:32;;;;;;;8.38;2.75;;;14.60;85.90;;;;;;5010352;28;20036;-73
2021/12/31 02:01:03;;;;;;;6.78;2.25;;;14.70;85.80;;;;;;5028397;28;20029;-73
2021/12/31 02:03:31;;;;;;;4.70;2.03;;;14.60;85.80;;;;;;5030850;28;20567;-73
2021/12/31 02:05:57;;;;;;;6.28;2.28;;;14.70;85.90;;;;;;5013549;28;20029;-73
2021/12/31 02:08:23;;;;;;;3.83;2.00;;;14.70;85.80;;;;;;5042670;28;20044;-73
2021/12/31 02:10:50;;;;;;;5.28;2.28;;;14.60;85.70;;;;;;5013219;28;20018;-73
2021/12/31 02:13:17;;;;;;;5.47;2.00;;;14.70;85.80;;;;;;5013227;28;20030;-73
2021/12/31 02:15:43;;;;;;;3.78;2.10;;;14.70;85.70;;;;;;5013327;28;20021;-73
2021/12/31 02:18:10;;;;;;;7.93;2.13;;;14.70;85.40;;;;;;5024846;28;20578;-73
2021/12/31 02:20:47;;;;;;;4.05;2.25;;;14.70;85.20;;;;;;5017527;28;20467;-73
2021/12/31 02:23:15;;;;;;;7.20;2.08;;;14.70;85.10;;;;;;5016913;28;20030;-73
2021/12/31 02:25:41;;;;;;;5.20;1.92;;;14.70;85.20;;;;;;5012984;28;20056;-73
2021/12/31 02:28:07;;;;;;;5.15;2.28;;;14.70;85.20;;;;;;5028589;28;20057;-73
2021/12/31 02:30:33;;;;;;;5.68;2.00;;;14.70;85.00;;;;;;5030920;28;20032;-73
2021/12/31 02:32:59;;;;;;;3.50;1.90;;;14.70;85.00;;;;;;5030563;28;20030;-73
2021/12/31 02:35:25;;;;;;;6.07;1.95;;;14.70;84.70;;;;;;5013275;28;20072;-73
2021/12/31 02:37:51;;;;;;;5.97;1.95;;;14.70;84.50;;;;;;5027963;28;20030;-73
2021/12/31 02:40:19;;;;;;;5.07;2.53;;;14.70;84.50;;;;;;5024606;28;20048;-73
2021/12/31 02:42:45;;;;;;;4.80;1.65;;;14.70;84.50;;;;;;5016008;28;20026;-73
2021/12/31 02:45:12;;;;;;;3.72;1.70;;;14.70;84.40;;;;;;5008335;28;20554;-73
2021/12/31 02:47:46;;;;;;;5.55;2.20;;;14.80;84.50;;;;;;5025608;28;20392;-72
2021/12/31 02:50:15;;;;;;;4.25;2.10;;;14.80;84.30;;;;;;5012815;28;20064;-72
2021/12/31 02:52:42;;;;;;;2.28;1.63;;;14.80;84.20;;;;;;5044528;28;20030;-72
2021/12/31 02:55:11;;;;;;;6.90;2.30;;;14.80;84.10;;;;;;5033668;28;20030;-72
2021/12/31 02:57:41;;;;;;;6.25;2.20;;;14.80;83.90;;;;;;5029278;28;20025;-72
2021/12/31 03:00:08;;;;;;;7.50;2.15;;;14.80;84.00;;;;;;5006134;28;20038;-72
2021/12/31 03:02:38;;;;;;;3.83;1.63;;;14.80;83.90;;;;;;5030255;28;20029;-72
2021/12/31 03:05:04;;;;;;;4.68;1.80;;;14.80;83.70;;;;;;5033644;28;20032;-72
2021/12/31 03:07:31;;;;;;;2.92;1.70;;;14.80;83.70;;;;;;5032444;28;20033;-72
2021/12/31 03:09:59;;;;;;;6.07;1.80;;;14.80;83.60;;;;;;5015651;28;20044;-72
2021/12/31 03:12:25;;;;;;;5.13;2.22;;;14.80;83.60;;;;;;5031895;28;20619;-72
2021/12/31 03:14:51;;;;;;;4.97;2.10;;;14.80;83.60;;;;;;5024777;28;20116;-72
2021/12/31 03:17:19;;;;;;;4.25;1.60;;;14.80;83.50;;;;;;5029051;28;20123;-72
2021/12/31 03:19:45;;;;;;;3.67;1.77;;;14.80;83.50;;;;;;5023939;28;20499;-72
2021/12/31 03:22:11;;;;;;;4.25;1.80;;;14.80;83.20;;;;;;4986042;28;20041;-73
2021/12/31 03:24:40;;;;;;;6.25;1.95;;;14.80;83.20;;;;;;5012900;28;20044;-73
2021/12/31 03:27:05;;;;;;;4.22;1.50;;;14.80;83.10;;;;;;5012782;28;20040;-73
2021/12/31 03:29:31;;;;;;;3.70;1.67;;;14.80;83.10;;;;;;4988149;28;20506;-73
2021/12/31 03:31:57;;;;;;;3.45;1.70;;;14.80;83.10;;;;;;5014590;28;20376;-72
2021/12/31 03:34:23;;;;;;;5.43;1.77;;;14.80;83.00;;;;;;5015229;28;20107;-72
2021/12/31 03:36:48;;;;;;;4.70;1.80;;;14.80;83.00;;;;;;5032741;28;20037;-73
2021/12/31 03:39:14;;;;;;;4.60;2.00;;;14.80;83.10;;;;;;5014762;28;20042;-72
2021/12/31 03:41:40;;;;;;;3.28;1.70;;;14.80;82.80;;;;;;5025993;28;20094;-73
2021/12/31 03:44:07;;;;;;;3.15;1.35;;;14.80;82.90;;;;;;5032603;28;20399;-72
2021/12/31 03:46:33;;;;;;;5.38;1.60;;;14.80;82.90;;;;;;5030698;28;20040;-72
2021/12/31 03:48:59;;;;;;;3.00;1.55;;;14.80;82.80;;;;;;5013579;28;20029;-72
2021/12/31 03:51:24;;;;;;;4.40;1.60;;;14.80;82.60;;;;;;5012824;28;20034;-72
2021/12/31 03:53:50;;;;;;;3.30;1.65;;;14.80;82.80;;;;;;5012865;28;20473;-72
2021/12/31 03:56:19;;;;;;;3.50;1.98;;;14.80;82.80;;;;;;5011873;28;20112;-72
2021/12/31 03:58:44;;;;;;;5.03;1.50;;;14.80;82.50;;;;;;5022388;28;20026;-72
2021/12/31 04:01:10;;;;;;;5.43;2.10;;;14.80;82.30;;;;;;5031670;28;20350;-72
2021/12/31 04:03:36;;;;;;;3.35;1.60;;;14.80;82.20;;;;;;5024546;28;20022;-72
2021/12/31 04:06:02;;;;;;;4.13;1.80;;;14.80;82.20;;;;;;5024234;28;20116;-71
2021/12/31 04:08:27;;;;;;;4.97;1.73;;;14.80;82.30;;;;;;5014815;28;20026;-72
2021/12/31 04:10:53;;;;;;;3.83;2.22;;;14.80;82.40;;;;;;5027020;28;20087;-71
2021/12/31 04:13:19;;;;;;;3.55;1.70;;;14.80;82.30;;;;;;5031677;28;20560;-71
2021/12/31 04:15:44;;;;;;;4.65;1.80;;;14.80;82.20;;;;;;5010433;28;20092;-72
2021/12/31 04:18:10;;;;;;;5.40;2.03;;;14.80;82.30;;;;;;5011616;28;20030;-71
2021/12/31 04:20:39;;;;;;;6.32;2.05;;;14.80;82.30;;;;;;5012028;28;20554;-71
2021/12/31 04:23:12;;;;;;;7.10;1.95;;;14.80;82.10;;;;;;5011837;28;20440;-71
2021/12/31 04:25:38;;;;;;;3.42;1.70;;;14.80;82.20;;;;;;5012110;28;20030;-71
2021/12/31 04:28:05;;;;;;;4.13;1.90;;;14.80;82.20;;;;;;5011674;28;20049;-72
2021/12/31 04:30:31;;;;;;;5.78;1.60;;;14.80;82.10;;;;;;5012244;28;20134;-71
2021/12/31 04:32:58;;;;;;;4.18;1.50;;;14.80;82.10;;;;;;5018692;28;20038;-72
2021/12/31 04:35:24;;;;;;;4.88;1.75;;;14.80;82.10;;;;;;5025386;28;20026;-71
2021/12/31 04:37:53;;;;;;;5.30;1.95;;;14.80;82.10;;;;;;5026357;28;20439;-71
2021/12/31 04:40:18;;;;;;;5.20;1.75;;;14.70;81.90;;;;;;5016446;28;20048;-72
2021/12/31 04:42:46;;;;;;;4.15;2.00;;;14.80;81.90;;;;;;5029462;28;20029;-72
2021/12/31 04:45:13;;;;;;;4.25;1.77;;;14.70;81.90;;;;;;5031401;28;20033;-72
2021/12/31 04:47:39;;;;;;;3.65;1.73;;;14.80;82.00;;;;;;5028272;28;20495;-71
2021/12/31 04:50:06;;;;;;;5.70;1.77;;;14.70;82.10;;;;;;5026893;28;20025;-72
2021/12/31 04:52:32;;;;;;;3.92;2.25;;;14.70;82.20;;;;;;5026655;28;20060;-72
2021/12/31 04:54:58;;;;;;;3.00;1.75;;;14.70;82.10;;;;;;5013270;28;20509;-71
2021/12/31 04:57:25;;;;;;;2.83;1.67;;;14.70;82.20;;;;;;5011128;28;20045;-72
2021/12/31 04:59:51;;;;;;;4.45;1.65;;;14.70;82.20;;;;;;5010609;28;20592;-72
2021/12/31 05:02:17;;;;;;;3.83;2.08;;;14.70;82.30;;;;;;5020529;28;20025;-72
2021/12/31 05:04:44;;;;;;;7.10;2.17;;;14.70;82.20;;;;;;5010128;28;20113;-72
2021/12/31 05:07:13;;;;;;;5.43;2.08;;;14.70;82.20;;;;;;5017424;28;20518;-72
2021/12/31 05:09:39;;;;;;;5.15;1.98;;;14.70;82.40;;;;;;5028445;28;20087;-72
2021/12/31 05:12:05;;;;;;;5.28;2.25;;;14.70;82.30;;;;;;5030152;28;20025;-71
2021/12/31 05:14:32;;;;;;;5.10;2.08;;;14.70;82.20;;;;;;5026571;28;20401;-71
2021/12/31 05:16:58;;;;;;;4.28;2.00;;;14.70;82.20;;;;;;5028549;28;20026;-71
2021/12/31 05:19:25;;;;;;;6.63;1.88;;;14.70;82.20;;;;;;5027376;28;20492;-72
2021/12/31 05:21:51;;;;;;;4.60;2.30;;;14.70;82.40;;;;;;5030171;28;20021;-71
2021/12/31 05:24:17;;;;;;;3.28;1.77;;;14.70;82.30;;;;;;5018643;28;20048;-72
2021/12/31 05:26:44;;;;;;;4.50;2.10;;;14.70;82.20;;;;;;5030999;28;20022;-71
2021/12/31 05:29:09;;;;;;;5.05;1.95;;;14.70;82.10;;;;;;5030894;28;20388;-71
2021/12/31 05:31:35;;;;;;;4.43;1.95;;;14.70;82.10;;;;;;5031074;28;20025;-72
2021/12/31 05:34:01;;;;;;;4.40;1.85;;;14.70;82.10;;;;;;5028950;28;20040;-72
2021/12/31 05:36:27;;;;;;;6.05;1.80;;;14.70;82.20;;;;;;5021936;28;20429;-72
2021/12/31 05:38:52;;;;;;;5.15;1.92;;;14.70;82.30;;;;;;5026524;28;20064;-72
2021/12/31 05:41:18;;;;;;;3.92;2.20;;;14.70;82.40;;;;;;5014598;28;20040;-72
2021/12/31 05:43:44;;;;;;;4.38;2.05;;;14.60;82.30;;;;;;5016208;28;20026;-72
2021/12/31 05:46:09;;;;;;;6.20;2.10;;;14.60;82.40;;;;;;5014674;28;20060;-71
2021/12/31 05:48:35;;;;;;;6.28;2.42;;;14.60;82.40;;;;;;5014331;28;20054;-72
2021/12/31 05:51:02;;;;;;;5.95;2.28;;;14.60;82.50;;;;;;5020729;28;20033;-71
2021/12/31 05:53:27;;;;;;;4.68;2.42;;;14.60;82.50;;;;;;5025380;28;20502;-72
2021/12/31 05:55:53;;;;;;;5.93;2.28;;;14.50;82.30;;;;;;5019201;28;20045;-71
2021/12/31 05:58:19;;;;;;;3.63;2.15;;;14.50;82.40;;;;;;5011719;28;20045;-71
2021/12/31 06:00:45;;;;;;;8.52;2.60;;;14.60;82.50;;;;;;5024297;28;20026;-71
2021/12/31 06:03:10;;;;;;;6.03;2.40;;;14.50;82.40;;;;;;5019217;28;20052;-71
2021/12/31 06:05:36;;;;;;;3.88;2.45;;;14.50;82.50;;;;;;5013889;28;20125;-71
2021/12/31 06:08:02;;;;;;;6.82;2.47;;;14.50;82.60;;;;;;5020793;28;20050;-71
2021/12/31 06:10:28;;;;;;;7.47;2.35;;;14.50;82.50;;;;;;5016582;28;20080;-71
2021/12/31 06:12:58;;;;;;;5.88;2.20;;;14.50;82.40;;;;;;5012944;28;20010;-72
2021/12/31 06:15:25;;;;;;;5.82;2.47;;;14.50;82.30;;;;;;5025087;28;20056;-72
2021/12/31 06:17:51;;;;;;;4.18;2.25;;;14.50;82.30;;;;;;5021639;28;20098;-72
2021/12/31 06:20:17;;;;;;;3.38;1.98;;;14.50;82.40;;;;;;5025085;28;20069;-72
2021/12/31 06:22:42;;;;;;;4.80;2.20;;;14.50;82.50;;;;;;5028000;28;20132;-72
2021/12/31 06:25:08;;;;;;;5.75;2.63;;;14.50;82.50;;;;;;5014468;28;20085;-72
2021/12/31 06:27:34;;;;;;;6.45;2.40;;;14.50;82.50;;;;;;5030164;28;20064;-72
2021/12/31 06:30:00;;;;;;;4.82;2.38;;;14.50;82.30;;;;;;5015571;28;20042;-73
2021/12/31 06:32:26;;;;;;;5.13;2.20;;;14.50;82.20;;;;;;5026658;28;20525;-72
2021/12/31 06:34:51;;;;;;;2.92;2.08;;;14.50;82.30;;;;;;5021077;28;20109;-72
2021/12/31 06:37:17;;;;;;;6.30;2.30;;;14.50;82.20;;;;;;5018329;28;20373;-72
2021/12/31 06:39:45;;;;;;;5.45;2.33;;;14.50;82.20;;;;;;5032486;28;20119;-72
2021/12/31 06:42:11;;;;;;;4.95;2.30;;;14.40;82.20;;;;;;5014609;28;20034;-72
2021/12/31 06:44:37;;;;;;;5.20;2.25;;;14.40;82.00;;;;;;5020808;28;20769;-72
2021/12/31 06:47:03;;;;;;;5.93;2.30;;;14.40;81.90;;;;;;5023245;28;20036;-72
2021/12/31 06:49:30;;;;;;;5.65;2.50;;;14.40;81.90;;;;;;5028666;28;20125;-72
2021/12/31 06:51:56;;;;;;;4.03;2.20;;;14.40;81.80;;;;;;5024306;28;20021;-73
2021/12/31 06:54:21;;;;;;;5.95;2.22;;;14.40;81.90;;;;;;5030288;28;20040;-72
2021/12/31 06:56:47;;;;;;;4.82;2.33;;;14.40;82.00;;;;;;5024151;28;20101;-72
2021/12/31 06:59:13;;;;;;;4.65;2.63;;;14.30;82.00;;;;;;5020238;28;20040;-72
2021/12/31 07:01:39;;;;;;;6.72;2.42;;;14.30;82.00;;;;;;5033428;28;20496;-72
2021/12/31 07:04:05;;;;;;;5.50;2.38;;;14.30;81.90;;;;;;5029164;28;20034;-72
2021/12/31 07:06:30;;;;;;;3.95;2.28;;;14.20;81.90;;;;;;5008456;28;20464;-72
2021/12/31 07:08:56;;;;;;;4.75;1.98;;;14.20;81.90;;;;;;5028867;28;20029;-72
2021/12/31 07:11:22;;;;;;;5.65;2.20;;;14.20;82.10;;;;;;5028223;28;20044;-72
2021/12/31 07:13:49;;;;;;;4.28;1.92;;;14.20;82.00;;;;;;5021821;28;20116;-72
2021/12/31 07:16:18;;;;;;;5.50;2.05;;;14.20;82.00;;;;;;5027275;28;20034;-72
2021/12/31 07:18:44;;;;;;;6.28;2.15;;;14.10;82.00;;;;;;5015210;28;20040;-72
2021/12/31 07:21:10;;;;;;;4.90;2.33;;;14.10;81.80;;;;;;5030835;28;20112;-72
2021/12/31 07:23:36;;;;;;;4.55;2.30;;;14.10;81.90;;;;;;5028416;28;20065;-72
2021/12/31 07:26:02;;;;;;;6.60;2.67;;;14.10;81.90;;;;;;5026483;28;20057;-71
2021/12/31 07:28:28;;;;;;;6.78;2.50;;;14.10;81.90;;;;;;5029045;28;20060;-71
2021/12/31 07:30:54;;;;;;;5.15;2.60;;;14.00;81.70;;;;;;5027793;28;20344;-72
2021/12/31 07:33:22;;;;;;;4.00;2.30;;;14.00;81.70;;;;;;5032462;28;20064;-71
2021/12/31 07:35:48;;;;;;;6.38;2.30;;;14.00;81.70;;;;;;5033093;28;20033;-71
2021/12/31 07:38:20;;;;;;;6.78;2.63;;;14.00;82.40;;;;;;5014750;28;20040;-71
2021/12/31 07:40:47;;;;;;;7.68;2.10;;;14.00;81.80;;;;;;5031154;28;20064;-71
2021/12/31 07:43:14;;;;;;;5.13;2.28;;;14.00;81.70;;;;;;5028080;28;20065;-72
2021/12/31 07:45:41;;;;;;;4.32;2.20;;;14.00;81.80;;;;;;5028928;28;20076;-71
2021/12/31 07:48:07;;;;;;;3.92;2.47;;;14.00;81.70;;;;;;5012328;28;20044;-71
2021/12/31 07:50:34;;;;;;;4.38;2.20;;;14.00;81.70;;;;;;5012494;28;20056;-71
2021/12/31 07:52:59;;;;;;;4.40;2.67;;;13.90;81.80;;;;;;5014632;28;20487;-71
2021/12/31 07:55:25;;;;;;;3.30;2.35;;;13.90;81.90;;;;;;5035109;28;20032;-72
2021/12/31 07:57:51;;;;;;;4.50;1.98;;;13.90;82.00;;;;;;5034879;28;20365;-70
2021/12/31 08:00:17;;;;;;;3.17;2.10;;;13.90;82.00;;;;;;5025158;28;20030;-70
2021/12/31 08:02:42;;;;;;;5.38;2.40;;;13.90;82.10;;;;;;5044715;28;20035;-70
2021/12/31 08:05:09;;;;;;;5.07;2.30;;;13.90;82.10;;;;;;5028199;28;20030;-70
2021/12/31 08:07:34;;;;;;;4.47;2.10;;;13.90;81.90;;;;;;5035928;28;20038;-70
2021/12/31 08:10:00;;;;;;;7.63;2.00;;;13.90;81.90;;;;;;5033379;28;21511;-70
2021/12/31 08:12:27;;;;;;;5.68;2.40;;;13.90;81.70;;;;;;5018624;28;20576;-70
2021/12/31 08:14:52;;;;;;;4.28;2.25;;;13.80;81.80;;;;;;5017863;28;20495;-71
2021/12/31 08:17:18;;;;;;;4.30;2.35;;;13.80;81.80;;;;;;5029887;28;20022;-70
2021/12/31 08:19:44;;;;;;;6.25;2.47;;;13.80;81.90;;;;;;5027741;28;20040;-70
2021/12/31 08:22:09;;;;;;;5.53;2.75;;;13.80;81.80;;;;;;5035296;28;20038;-70
2021/12/31 08:24:35;;;;;;;4.75;2.25;;;13.80;81.90;;;;;;5024723;28;20452;-70
2021/12/31 08:27:01;;;;;;;5.30;2.55;;;13.70;81.90;;;;;;5036400;28;20039;-70
2021/12/31 08:29:26;;;;;;;5.07;2.40;;;13.80;81.90;;;;;;5033864;28;20503;-70
2021/12/31 08:31:52;;;;;;;4.78;2.25;;;13.80;82.00;;;;;;5030457;28;20022;-70
2021/12/31 08:34:18;;;;;;;3.50;2.20;;;13.80;82.00;;;;;;5020501;28;20061;-70
2021/12/31 08:36:44;;;;;;;3.13;2.17;;;13.80;82.00;;;;;;5030379;28;20088;-69
2021/12/31 08:39:10;;;;;;;3.67;2.30;;;13.70;82.00;;;;;;5016730;28;20032;-70
2021/12/31 08:41:37;;;;;;;5.72;2.60;;;13.70;82.00;;;;;;5033132;28;20479;-70
2021/12/31 08:44:05;;;;;;;3.53;2.10;;;13.70;81.80;;;;;;5034026;28;20037;-69
2021/12/31 08:46:31;;;;;;;4.45;2.38;;;13.80;81.90;;;;;;5028417;28;20036;-72
2021/12/31 08:48:57;;;;;;;3.40;2.33;;;13.80;81.90;;;;;;5040369;28;20029;-71
2021/12/31 08:51:24;;;;;;;6.85;3.85;;;13.80;81.90;;;;;;5034857;28;20033;-69
2021/12/31 08:53:50;;;;;;;4.13;2.50;;;13.80;81.70;;;;;;5034240;28;20024;-71
2021/12/31 08:56:16;;;;;;;3.78;2.10;;;13.80;81.60;;;;;;5036843;28;20079;-70
2021/12/31 08:58:42;;;;;;;4.63;2.20;;;13.80;81.60;;;;;;5040854;28;20112;-69
2021/12/31 09:01:07;;;;;;;5.82;2.45;;;13.80;81.70;;;;;;5042878;28;20039;-70
2021/12/31 09:03:33;;;;;;;5.82;2.40;;;13.70;81.50;;;;;;5031759;28;20041;-70
2021/12/31 09:05:59;;;;;;;3.00;2.05;;;13.70;81.50;;;;;;5021940;28;20068;-71
2021/12/31 09:08:24;;;;;;;4.45;2.10;;;13.70;81.70;;;;;;5030407;28;20033;-70
2021/12/31 09:10:50;;;;;;;7.95;2.53;;;13.70;81.60;;;;;;5023919;28;20076;-70
2021/12/31 09:13:16;;;;;;;4.28;2.50;;;13.80;81.40;;;;;;5027069;28;20021;-71
2021/12/31 09:15:41;;;;;;;6.45;2.22;;;13.70;81.40;;;;;;5018147;28;20045;-71
2021/12/31 09:18:07;;;;;;;4.82;2.35;;;13.70;81.30;;;;;;5018313;28;20078;-70
2021/12/31 09:20:33;;;;;;;5.40;2.55;;;13.70;81.30;;;;;;5022127;28;20046;-70
2021/12/31 09:22:59;;;;;;;5.43;2.50;;;13.70;81.30;;;;;;5028548;28;20030;-71
2021/12/31 09:25:24;;;;;;;6.45;2.28;;;13.80;81.40;;;;;;5011217;28;20036;-70
2021/12/31 09:27:50;;;;;;;3.50;2.13;;;13.80;81.30;;;;;;5024325;28;20029;-71
2021/12/31 09:30:16;;;;;;;5.85;3.05;;;13.80;81.40;;;;;;5024663;28;20042;-71
2021/12/31 09:32:42;;;;;;;3.83;2.33;;;13.80;81.30;;;;;;5030984;28;20034;-70
2021/12/31 09:35:08;;;;;;;5.07;3.25;;;13.80;81.20;;;;;;5028934;28;20022;-71
2021/12/31 09:37:34;;;;;;;4.97;3.47;;;13.80;81.20;;;;;;5037440;28;20099;-70
2021/12/31 09:40:00;;;;;;;6.47;3.47;;;13.70;81.10;;;;;;5022810;28;20531;-71
2021/12/31 09:42:26;;;;;;;4.43;2.95;;;13.70;81.10;;;;;;5044808;28;20037;-71
2021/12/31 09:44:52;;;;;;;3.65;2.40;;;13.70;81.10;;;;;;5048685;28;20383;-70
2021/12/31 09:47:18;;;;;;;5.07;2.58;;;13.70;81.10;;;;;;5017192;28;20049;-70
2021/12/31 09:49:46;;;;;;;3.15;2.33;;;13.80;80.90;;;;;;5023681;28;20049;-70
2021/12/31 09:52:14;;;;;;;3.47;2.10;;;13.70;80.70;;;;;;5026031;28;20048;-71
2021/12/31 09:54:45;;;;;;;3.80;2.30;;;13.80;81.00;;;;;;5030709;28;20033;-70
2021/12/31 09:57:19;;;;;;;6.68;2.42;;;13.80;81.00;;;;;;5032306;28;20508;-71
2021/12/31 09:59:46;;;;;;;3.47;2.10;;;13.80;80.60;;;;;;5030385;28;20369;-70
2021/12/31 10:02:13;;;;;;;5.68;4.38;;;13.80;80.70;;;;;;5037379;28;20021;-70
2021/12/31 10:04:52;;;;;;;4.15;2.50;;;13.80;80.60;;;;;;5034774;28;20042;-71
2021/12/31 10:07:21;;;;;;;5.63;2.70;;;13.80;80.60;;;;;;5026369;28;20076;-71
2021/12/31 10:10:14;;;;;;;5.57;2.60;;;13.80;80.50;;;;;;5034039;28;20048;-71
2021/12/31 10:12:59;;;;;;;4.38;2.45;;;13.80;80.60;;;;;;5029423;28;21109;-71
2021/12/31 10:15:26;;;;;;;3.53;2.25;;;13.80;80.60;;;;;;5030923;28;20029;-70
2021/12/31 10:17:53;;;;;;;2.72;2.08;;;13.80;80.40;;;;;;5028686;28;20083;-70
2021/12/31 10:20:19;;;;;;;3.25;2.40;;;13.80;80.50;;;;;;5015026;28;20392;-71
2021/12/31 10:22:46;;;;;;;4.35;2.30;;;13.80;80.50;;;;;;5030919;28;20461;-70
2021/12/31 10:25:26;;;;;;;4.47;2.42;;;13.80;80.70;;;;;;5031667;28;20029;-73
2021/12/31 10:28:08;;;;;;;5.03;2.88;;;13.80;80.70;;;;;;5028262;28;20041;-72
2021/12/31 10:30:34;;;;;;;9.35;5.28;;;13.80;80.90;;;;;;5031531;28;20121;-72
2021/12/31 10:32:59;;;;;;;4.63;3.05;;;13.80;80.70;;;;;;5021725;28;20484;-72
2021/12/31 10:35:25;;;;;;;4.32;2.42;;;13.80;80.80;;;;;;5034440;28;20030;-72
2021/12/31 10:37:58;;;;;;;6.13;2.50;;;13.80;80.80;;;;;;5032257;28;20026;-72
2021/12/31 10:40:29;;;;;;;3.72;2.30;;;13.80;80.80;;;;;;5021053;28;20094;-72
2021/12/31 10:43:21;;;;;;;7.10;3.42;;;13.80;80.90;;;;;;5033069;28;20116;-72
2021/12/31 10:46:03;;;;;;;4.17;3.07;;;13.90;80.70;;;;;;5013067;28;20054;-72
2021/12/31 10:48:46;;;;;;;6.63;2.78;;;13.90;80.70;;;;;;5027808;28;20049;-72
2021/12/31 10:51:19;;;;;;;5.45;2.80;;;13.90;80.70;;;;;;5040345;28;20040;-72
2021/12/31 10:53:53;;;;;;;3.33;2.53;;;13.90;80.50;;;;;;5036684;28;20071;-72
2021/12/31 10:56:20;;;;;;;4.00;2.55;;;13.90;80.20;;;;;;5034943;28;20049;-73
2021/12/31 10:58:58;;;;;;;3.35;2.33;;;14.00;80.50;;;;;;5024530;28;20029;-72
2021/12/31 11:01:25;;;;;;;7.47;2.45;;;14.20;80.20;;;;;;5015334;28;20064;-72
2021/12/31 11:03:52;;;;;;;5.47;2.40;;;14.30;79.90;;;;;;5027496;28;20050;-72
2021/12/31 11:06:20;;;;;;;4.90;2.20;;;14.20;79.20;;;;;;5031870;28;20037;-72
2021/12/31 11:08:49;;;;;;;4.50;2.40;;;14.30;79.30;;;;;;5041205;28;20025;-72
2021/12/31 11:11:16;;;;;;;4.63;2.50;;;14.20;79.40;;;;;;5021003;28;20036;-72
2021/12/31 11:13:44;;;;;;;4.65;2.42;;;14.20;79.30;;;;;;5018524;28;20362;-72
2021/12/31 11:16:12;;;;;;;4.95;2.60;;;14.20;79.20;;;;;;5031239;28;20017;-72
2021/12/31 11:18:40;;;;;;;3.83;2.60;;;14.10;79.20;;;;;;5033646;28;20030;-72
2021/12/31 11:21:09;;;;;;;3.88;2.58;;;14.10;79.60;;;;;;5029404;28;20032;-72
2021/12/31 11:23:36;;;;;;;5.30;3.15;;;14.00;79.60;;;;;;5029478;28;20080;-72
2021/12/31 11:26:05;;;;;;;3.65;2.85;;;14.00;79.80;;;;;;5016202;28;20048;-72
2021/12/31 11:28:36;;;;;;;5.38;3.42;;;14.10;79.90;;;;;;5031052;28;20018;-72
2021/12/31 11:31:23;;;;;;;4.37;2.63;;;14.00;79.80;;;;;;5017913;28;20126;-72
2021/12/31 11:33:58;;;;;;;6.45;3.03;;;14.00;80.00;;;;;;5020840;28;20064;-72
2021/12/31 11:36:41;;;;;;;6.78;2.90;;;14.10;79.80;;;;;;5012323;28;20057;-72
2021/12/31 11:39:38;;;;;;;9.18;2.92;;;14.20;79.80;;;;;;5012303;28;20052;-72
2021/12/31 11:42:08;;;;;;;3.53;2.40;;;14.20;79.70;;;;;;5017967;28;20052;-72
2021/12/31 11:44:37;;;;;;;3.13;2.20;;;14.40;79.30;;;;;;5020973;28;20697;-72
2021/12/31 11:47:17;;;;;;;3.22;2.33;;;14.40;79.10;;;;;;5023323;28;20484;-72
2021/12/31 11:49:45;;;;;;;7.15;2.75;;;14.50;79.20;;;;;;5025557;28;20041;-72
2021/12/31 11:52:14;;;;;;;4.30;3.03;;;14.50;79.10;;;;;;5016779;28;20447;-72
2021/12/31 11:54:40;;;;;;;4.70;2.70;;;14.50;79.10;;;;;;5028465;28;20032;-72
2021/12/31 11:57:12;;;;;;;5.95;2.70;;;14.50;79.10;;;;;;5019815;28;20488;-72
2021/12/31 11:59:52;;;;;;;5.03;2.40;;;14.70;79.20;;;;;;5024798;28;20087;-72
2021/12/31 12:02:20;;;;;;;5.07;3.10;;;15.70;76.60;;;;;;5029741;28;20041;-72
2021/12/31 12:05:07;;;;;;;3.38;2.33;;;16.70;72.50;;;;;;5029756;28;20069;-72
2021/12/31 12:07:47;;;;;;;5.03;2.90;;;17.30;70.40;;;;;;5010146;28;20045;-72
2021/12/31 12:10:22;;;;;;;5.20;2.65;;;17.00;70.30;;;;;;5019859;28;20044;-72
2021/12/31 12:12:50;;;;;;;3.75;2.50;;;16.60;71.30;;;;;;5009600;28;20069;-72
2021/12/31 12:15:19;;;;;;;6.40;3.08;;;16.10;72.80;;;;;;5028337;28;20033;-72
2021/12/31 12:17:46;;;;;;;4.25;2.70;;;15.70;74.20;;;;;;5015197;28;20403;-72
2021/12/31 12:20:18;;;;;;;5.55;3.05;;;15.40;75.60;;;;;;5013978;28;20030;-72
2021/12/31 12:22:51;;;;;;;;;;;15.20;76.80;;;;;;5028098;28;20029;-72
2021/12/31 12:25:18;;;;;;;4.22;3.38;;;15.00;77.30;;;;;;5031321;28;19959;-72
2021/12/31 12:27:48;;;;;;;4.57;3.00;;;14.90;78.30;;;;;;5026362;28;20029;-72
2021/12/31 12:30:15;;;;;;;5.47;3.78;;;14.90;78.90;;;;;;5032626;28;20037;-72
2021/12/31 12:35:30;;;;;;;7.88;3.30;;;14.70;79.60;;;;;;5028427;28;20144;-72
2021/12/31 12:38:11;;;;;;;6.78;3.20;;;14.80;79.50;;;;;;5026960;28;20035;-72
2021/12/31 12:40:45;;;;;;;6.40;2.58;;;15.00;79.60;;;;;;5018146;28;20496;-72
2021/12/31 12:43:15;;;;;;;6.15;3.10;;;15.50;77.80;;;;;;5019052;28;20195;-73
2021/12/31 12:45:43;;;;;;;8.40;2.80;;;15.60;76.80;;;;;;5014025;28;20017;-72
2021/12/31 12:48:09;;;;;;;7.50;2.92;;;15.80;77.00;;;;;;5027464;28;20041;-72
2021/12/31 12:50:36;;;;;;;8.00;2.78;;;16.20;74.50;;;;;;5022085;28;20113;-73
2021/12/31 12:53:02;;;;;;;7.82;3.38;;;16.10;74.10;;;;;;5035172;28;20029;-72
2021/12/31 12:55:29;;;;;;;5.68;3.13;;;16.00;74.50;;;;;;5029997;28;20048;-72